Bethlehem, NH (03574)

11:34 PM EST on January 19, 2017 (GMT -0500)
Parker Rd | | Change Station

Elev 1299 ft 44.28 °N, 71.71 °W | Updated 52 seconds ago

Overcast
Overcast
30.3 °F
Feels Like 30 °F
N
2.0
Wind Variable Wind from SE

Today
High -- | Low -- °F
--% Chance of Precip.
Yesterday
High -- | Low -- °F
Precip. -- in
Pressure 30.07 in
Visibility 10.0 miles
Clouds Overcast 2300 ft
Windchill 30 °F
Dew Point 29 °F
Humidity 96%
Rainfall 0.05 in
Snow Depth Not available.
7:16 AM 4:39 PM
Waning Gibbous, 48% visible
METAR KHIE 200352Z AUTO 00000KT 10SM OVC023 00/M02 A3003 RMK AO2 SLP181 T00001022
Pressure 30.07 in
Visibility 10.0 miles
Clouds Overcast 2300 ft
Windchill 30 °F
Dew Point 29 °F
Humidity 96%
Rainfall 0.05 in
Snow Depth Not available.
7:16 AM 4:39 PM
Waning Gibbous, 48% visible
METAR KHIE 200352Z AUTO 00000KT 10SM OVC023 00/M02 A3003 RMK AO2 SLP181 T00001022

Get Your Daily Forecast Email!

Thanks for signing up!

Be on the lookout for a verification email in your inbox.

You'll start receiving the daily forecast at 8 AM.

×

10-Day Weather Forecast

Almanac

Astronomy

Jan. 19, 2017 Rise Set
Actual Time
Civil Twilight
Nautical Twilight
Astronomical Twilight
Moon
Length of Visible Light
Length of Day
Tomorrow will be .
, % of the Moon is Illuminated

Today's Extremes

State Highs State Lows

Community

WunderPhotos

Upload Photos

1,962,540 photos uploaded!

WunderBlog® & News

Nearby

Air Quality

  Air Quality AQ Index Pollutant
Not available.

Snow Depth

Station Depth Elevation

Earthquake Activity

City Distance Mag. Time & Date
Minimum magnitude displayed is 2.5.

Coastal Water Temperatures

Place Temperature

Stations

Nearby Weather Stations

Station Location Temp. Windchill Dew Point Humidity Wind Precip. Elev Updated Type
                   

Watches & Warnings

Small Craft for Hazardous Seas Advisory
Issued: 2:30 PM EST Jan. 19, 2017 – National Weather Service

... Small Craft Advisory for hazardous seas now in effect until
7 am EST Friday...

* seas... 4 to 6 feet.

Precautionary/preparedness actions...

A Small Craft Advisory for hazardous seas means that waves are
expected to be hazardous to small craft. Mariners should avoid
shoaling areas. Long period swell can sharpen into large breaking
waves in shoaling areas. It is not unusual for waves to break
much farther from shoaling areas than is normally experienced.
Remember... breaking waves can easily capsize even larger vessels.